Time;durP1;ratioP1;P1;durP2;ratioP2;P2;SDS_P1;SDS_P2;PMS_P1;PMS_P2;Temp;Humidity;BMP_temperature;BMP_pressure;BME280_temperature;BME280_humidity;BME280_pressure;Samples;Min_cycle;Max_cycle;Signal;HPM_P1;HPM_P2
2021/10/16 00:00:03;;;;;;;10.83;7.47;;;7.80;81.20;;;;;;2658535;30;20740;-80
2021/10/16 00:02:29;;;;;;;18.43;9.67;;;7.90;81.20;;;;;;2658021;38;20173;-80
2021/10/16 00:04:55;;;;;;;14.50;7.50;;;7.80;81.40;;;;;;2658083;38;20357;-81
2021/10/16 00:07:22;;;;;;;8.83;7.37;;;8.00;80.60;;;;;;2669905;30;20181;-80
2021/10/16 00:09:48;;;;;;;13.83;8.30;;;8.10;79.80;;;;;;2662399;38;20918;-79
2021/10/16 00:12:14;;;;;;;14.13;9.10;;;8.00;79.90;;;;;;2653627;38;20379;-81
2021/10/16 00:14:42;;;;;;;10.43;7.40;;;8.00;79.50;;;;;;2674278;30;20749;-81
2021/10/16 00:17:07;;;;;;;18.73;8.07;;;7.90;79.40;;;;;;2659288;38;20186;-82
2021/10/16 00:19:36;;;;;;;10.97;8.60;;;7.90;79.60;;;;;;2666109;38;20966;-81
2021/10/16 00:22:02;;;;;;;17.27;8.40;;;7.90;79.30;;;;;;2674687;30;20178;-80
2021/10/16 00:24:28;;;;;;;15.50;8.90;;;7.90;79.70;;;;;;2666033;30;20412;-80
2021/10/16 00:26:53;;;;;;;13.83;9.30;;;7.90;79.60;;;;;;2664978;30;20366;-80
2021/10/16 00:29:19;;;;;;;11.93;7.40;;;7.80;80.40;;;;;;2660773;30;20303;-79
2021/10/16 00:31:46;;;;;;;12.83;8.77;;;7.40;81.70;;;;;;2667988;38;20173;-81
2021/10/16 00:34:13;;;;;;;16.60;8.57;;;7.50;81.30;;;;;;2666933;30;20174;-81
2021/10/16 00:36:38;;;;;;;10.20;8.03;;;7.60;82.30;;;;;;2724198;30;20391;-81
2021/10/16 00:39:04;;;;;;;15.10;8.43;;;7.70;80.80;;;;;;2664464;30;20477;-80
2021/10/16 00:41:30;;;;;;;11.80;9.13;;;7.70;80.00;;;;;;2749749;30;20241;-80
2021/10/16 00:44:11;;;;;;;10.93;7.37;;;7.70;79.70;;;;;;2727184;30;20218;-79
2021/10/16 00:46:36;;;;;;;13.80;10.10;;;7.90;79.20;;;;;;2721691;30;20184;-81
2021/10/16 00:49:02;;;;;;;21.67;8.83;;;7.90;79.00;;;;;;2730570;30;20405;-78
2021/10/16 00:51:28;;;;;;;15.43;8.50;;;7.70;79.50;;;;;;2709781;30;20925;-79
2021/10/16 00:53:54;;;;;;;17.20;8.57;;;7.70;79.60;;;;;;2718002;30;20201;-81
2021/10/16 00:56:20;;;;;;;14.87;8.50;;;7.80;79.50;;;;;;2727574;30;21025;-79
2021/10/16 00:58:45;;;;;;;17.60;8.87;;;7.70;79.20;;;;;;2732288;38;20238;-80
2021/10/16 01:01:11;;;;;;;14.57;9.43;;;7.50;80.30;;;;;;2703899;30;20189;-80
2021/10/16 01:03:39;;;;;;;20.40;9.83;;;7.60;79.10;;;;;;2642217;30;21098;-80
2021/10/16 01:06:04;;;;;;;16.43;8.53;;;7.70;79.40;;;;;;2642435;38;20189;-81
2021/10/16 01:08:30;;;;;;;13.37;8.13;;;7.50;79.30;;;;;;2642802;30;20410;-81
2021/10/16 01:10:57;;;;;;;16.90;7.93;;;7.40;79.40;;;;;;2640368;38;20193;-81
2021/10/16 01:13:27;;;;;;;12.80;8.80;;;7.30;79.90;;;;;;2641415;30;20179;-80
2021/10/16 01:15:53;;;;;;;14.17;9.23;;;7.30;80.10;;;;;;2642869;38;20467;-81
2021/10/16 01:18:23;;;;;;;13.30;9.27;;;7.30;79.60;;;;;;2644090;38;20355;-80
2021/10/16 01:21:04;;;;;;;11.73;8.50;;;7.20;79.70;;;;;;2645359;38;20335;-80
2021/10/16 01:23:35;;;;;;;16.20;9.10;;;7.20;80.00;;;;;;2643891;38;20358;-80
2021/10/16 01:26:06;;;;;;;15.27;9.77;;;7.10;79.90;;;;;;2650559;30;20350;-79
2021/10/16 01:28:32;;;;;;;15.17;8.17;;;7.40;79.80;;;;;;2646075;30;20314;-79
2021/10/16 01:30:59;;;;;;;15.07;8.60;;;7.50;79.40;;;;;;2649256;30;20367;-80
2021/10/16 01:33:30;;;;;;;12.07;8.67;;;7.20;80.50;;;;;;2656566;30;20366;-79
2021/10/16 01:36:01;;;;;;;10.43;8.00;;;7.00;81.00;;;;;;2648212;38;20439;-80
2021/10/16 01:38:29;;;;;;;22.27;9.10;;;7.00;80.60;;;;;;2641960;38;20351;-79
2021/10/16 01:40:55;;;;;;;16.00;9.37;;;7.10;80.50;;;;;;2645186;30;20779;-79
2021/10/16 01:43:21;;;;;;;17.30;8.70;;;6.80;81.30;;;;;;2645162;38;20873;-81
2021/10/16 01:45:51;;;;;;;18.20;10.10;;;6.70;82.10;;;;;;2647099;38;20358;-80
2021/10/16 01:48:22;;;;;;;18.57;9.97;;;6.70;83.10;;;;;;2642460;30;20356;-79
2021/10/16 01:50:49;;;;;;;12.80;8.07;;;7.00;81.50;;;;;;2644494;30;20350;-79
2021/10/16 01:53:15;;;;;;;15.17;9.50;;;7.00;81.90;;;;;;2643248;38;20379;-81
2021/10/16 01:55:43;;;;;;;13.63;8.77;;;7.20;81.20;;;;;;2650642;30;20368;-81
2021/10/16 01:58:10;;;;;;;10.97;9.27;;;7.20;81.00;;;;;;2647235;30;20355;-81
2021/10/16 02:00:37;;;;;;;11.97;9.30;;;7.30;80.10;;;;;;2644266;30;20378;-81
2021/10/16 02:03:09;;;;;;;11.00;8.63;;;7.40;79.90;;;;;;2648539;30;20351;-80
2021/10/16 02:05:40;;;;;;;15.47;8.97;;;7.30;79.90;;;;;;2641672;30;20363;-79
2021/10/16 02:08:05;;;;;;;17.03;9.33;;;7.20;79.50;;;;;;2648461;30;20382;-80
2021/10/16 02:10:31;;;;;;;13.93;8.37;;;7.20;79.80;;;;;;2659669;30;21230;-80
2021/10/16 02:12:58;;;;;;;12.30;7.93;;;7.10;80.00;;;;;;2656850;38;20173;-81
2021/10/16 02:15:24;;;;;;;10.00;8.23;;;7.20;80.00;;;;;;2670170;30;20178;-82
2021/10/16 02:17:49;;;;;;;11.93;8.47;;;7.20;80.70;;;;;;2656286;30;20383;-80
2021/10/16 02:20:15;;;;;;;10.37;7.93;;;7.00;80.50;;;;;;2652022;38;20763;-79
2021/10/16 02:22:41;;;;;;;14.37;8.60;;;6.80;80.90;;;;;;2655907;38;20197;-80
2021/10/16 02:25:07;;;;;;;14.57;7.80;;;6.70;82.10;;;;;;2658368;30;20194;-79
2021/10/16 02:27:35;;;;;;;19.73;8.30;;;6.60;82.70;;;;;;2660594;38;20182;-81
2021/10/16 02:30:01;;;;;;;20.23;8.80;;;6.70;82.60;;;;;;2652463;30;20330;-80
2021/10/16 02:32:26;;;;;;;13.03;9.47;;;6.90;82.00;;;;;;2653193;30;20353;-80
2021/10/16 02:34:55;;;;;;;15.03;7.80;;;6.90;81.70;;;;;;2657522;30;20188;-81
2021/10/16 02:37:21;;;;;;;14.43;8.53;;;7.10;80.90;;;;;;2654290;30;20347;-81
2021/10/16 02:39:47;;;;;;;10.23;7.90;;;7.30;80.70;;;;;;2654485;30;20710;-80
2021/10/16 02:42:13;;;;;;;17.63;7.87;;;7.20;80.90;;;;;;2654261;38;20182;-80
2021/10/16 02:44:40;;;;;;;21.00;8.53;;;6.90;81.60;;;;;;2655588;38;20379;-81
2021/10/16 02:47:06;;;;;;;18.37;8.20;;;7.00;81.20;;;;;;2651210;38;20245;-80
2021/10/16 02:49:31;;;;;;;12.53;7.13;;;7.00;81.20;;;;;;2662547;30;20353;-80
2021/10/16 02:51:57;;;;;;;11.87;8.13;;;7.10;81.50;;;;;;2654771;38;20222;-81
2021/10/16 02:54:23;;;;;;;10.87;7.33;;;7.10;81.60;;;;;;2659593;30;20215;-82
2021/10/16 02:56:48;;;;;;;16.57;8.50;;;7.10;80.80;;;;;;2662999;30;20695;-79
2021/10/16 02:59:14;;;;;;;14.63;8.03;;;7.20;80.70;;;;;;2645306;30;20190;-80
2021/10/16 03:01:40;;;;;;;10.03;7.60;;;7.10;81.10;;;;;;2666900;38;20181;-80
2021/10/16 03:04:06;;;;;;;13.70;8.20;;;6.90;81.80;;;;;;2670397;30;20178;-80
2021/10/16 03:06:32;;;;;;;10.50;7.87;;;7.00;81.50;;;;;;2657879;38;20353;-80
2021/10/16 03:08:58;;;;;;;12.33;8.20;;;7.20;80.80;;;;;;2655686;30;20991;-80
2021/10/16 03:11:24;;;;;;;14.90;7.70;;;7.00;81.50;;;;;;2658565;30;20220;-80
2021/10/16 03:13:51;;;;;;;12.03;7.80;;;6.90;81.60;;;;;;2657795;30;21077;-80
2021/10/16 03:16:17;;;;;;;20.70;8.90;;;6.90;81.20;;;;;;2661540;30;20331;-80
2021/10/16 03:18:43;;;;;;;18.83;8.37;;;7.00;80.60;;;;;;2653378;38;20345;-81
2021/10/16 03:21:10;;;;;;;14.67;8.57;;;7.00;80.60;;;;;;2648311;38;20178;-81
2021/10/16 03:23:35;;;;;;;14.67;9.07;;;6.80;81.40;;;;;;2664384;30;20359;-80
2021/10/16 03:26:01;;;;;;;15.50;9.00;;;6.60;81.20;;;;;;2651722;38;21194;-80
2021/10/16 03:28:27;;;;;;;26.47;9.37;;;6.90;80.80;;;;;;2649944;38;20182;-79
2021/10/16 03:30:53;;;;;;;18.83;9.57;;;7.00;80.80;;;;;;2655612;38;20903;-80
2021/10/16 03:33:20;;;;;;;16.90;8.57;;;6.90;81.50;;;;;;2652978;30;20610;-81
2021/10/16 03:35:46;;;;;;;12.37;8.17;;;7.10;80.80;;;;;;2661060;38;20191;-80
2021/10/16 03:38:12;;;;;;;15.33;8.23;;;7.10;80.70;;;;;;2651671;30;20877;-79
2021/10/16 03:40:37;;;;;;;18.17;9.03;;;6.90;81.60;;;;;;2649893;30;20189;-80
2021/10/16 03:43:03;;;;;;;20.10;8.90;;;7.00;81.40;;;;;;2647205;31;20338;-81
2021/10/16 03:45:29;;;;;;;15.33;10.10;;;7.00;81.30;;;;;;2647577;30;20189;-79
2021/10/16 03:47:54;;;;;;;21.40;10.10;;;7.00;81.40;;;;;;2653990;30;20257;-80
2021/10/16 03:50:20;;;;;;;22.00;10.37;;;7.10;80.90;;;;;;2649610;30;20197;-81
2021/10/16 03:52:46;;;;;;;16.90;9.67;;;7.20;80.50;;;;;;2642971;38;20201;-80
2021/10/16 03:55:12;;;;;;;18.67;9.67;;;7.20;80.60;;;;;;2650644;38;20686;-79
2021/10/16 03:57:38;;;;;;;19.10;8.73;;;7.00;81.70;;;;;;2651335;38;20194;-81
2021/10/16 04:00:05;;;;;;;20.87;10.23;;;6.80;81.90;;;;;;2651438;38;20182;-81
2021/10/16 04:02:31;;;;;;;24.37;10.87;;;7.10;81.40;;;;;;2651961;30;20198;-79
2021/10/16 04:04:56;;;;;;;14.37;8.80;;;7.10;80.70;;;;;;2664447;30;20354;-80
2021/10/16 04:07:22;;;;;;;15.90;10.43;;;7.10;80.80;;;;;;2652435;38;20309;-80
2021/10/16 04:09:48;;;;;;;21.50;8.57;;;7.20;80.50;;;;;;2649774;30;20299;-82
2021/10/16 04:12:13;;;;;;;18.83;10.83;;;7.20;80.40;;;;;;2658708;30;20189;-80
2021/10/16 04:14:39;;;;;;;12.13;8.80;;;7.20;80.00;;;;;;2654375;30;20654;-81
2021/10/16 04:17:14;;;;;;;16.70;9.13;;;7.00;80.10;;;;;;2659942;30;20190;-79
2021/10/16 04:19:41;;;;;;;17.00;9.43;;;6.90;80.50;;;;;;2656772;38;21137;-82
2021/10/16 04:22:07;;;;;;;18.80;8.50;;;6.90;80.10;;;;;;2650613;30;20369;-79
2021/10/16 04:24:32;;;;;;;22.00;10.30;;;6.70;80.20;;;;;;2652265;30;20412;-79
2021/10/16 04:26:59;;;;;;;15.80;9.50;;;6.60;81.30;;;;;;2643301;38;20182;-79
2021/10/16 04:29:27;;;;;;;18.00;10.50;;;6.40;80.60;;;;;;2649295;38;20185;-79
2021/10/16 04:31:54;;;;;;;14.73;9.63;;;6.50;80.10;;;;;;2649733;30;21314;-82
2021/10/16 04:34:19;;;;;;;14.93;10.07;;;6.50;79.90;;;;;;2672243;30;20418;-81
2021/10/16 04:36:45;;;;;;;17.67;10.00;;;6.50;79.80;;;;;;2658663;30;20369;-78
2021/10/16 04:39:12;;;;;;;15.70;9.80;;;6.50;79.90;;;;;;2662178;30;20190;-80
2021/10/16 04:41:38;;;;;;;20.33;9.93;;;6.50;79.90;;;;;;2663689;30;20202;-81
2021/10/16 04:44:06;;;;;;;18.47;10.10;;;6.50;79.60;;;;;;2648268;38;21322;-81
2021/10/16 04:46:34;;;;;;;18.87;9.03;;;6.50;79.60;;;;;;2648103;38;20170;-83
2021/10/16 04:49:07;;;;;;;15.53;9.03;;;6.60;79.20;;;;;;2647640;30;21016;-80
2021/10/16 04:51:34;;;;;;;20.23;9.40;;;6.50;79.70;;;;;;2653480;38;20457;-81
2021/10/16 04:54:00;;;;;;;14.60;10.63;;;6.60;79.90;;;;;;2647308;30;20346;-80
2021/10/16 04:56:25;;;;;;;22.57;9.13;;;6.60;79.90;;;;;;2653896;30;20375;-79
2021/10/16 04:58:51;;;;;;;16.17;10.20;;;6.50;80.40;;;;;;2660282;30;20354;-79
2021/10/16 05:01:17;;;;;;;16.93;10.97;;;6.50;80.20;;;;;;2649674;38;20190;-81
2021/10/16 05:03:42;;;;;;;17.70;10.20;;;6.70;79.80;;;;;;2641834;38;20189;-80
2021/10/16 05:06:08;;;;;;;12.67;9.40;;;6.80;79.30;;;;;;2639587;38;20196;-81
2021/10/16 05:08:36;;;;;;;13.33;10.17;;;6.70;79.30;;;;;;2641399;30;20234;-79
2021/10/16 05:11:02;;;;;;;15.10;10.20;;;6.50;79.50;;;;;;2653192;30;20302;-79
2021/10/16 05:13:29;;;;;;;14.40;10.30;;;6.50;79.60;;;;;;2639357;38;20381;-78
2021/10/16 05:15:55;;;;;;;15.33;9.50;;;6.40;79.80;;;;;;2646570;30;20423;-80
2021/10/16 05:18:21;;;;;;;14.40;8.20;;;6.20;80.40;;;;;;2643843;30;20726;-79
2021/10/16 05:20:48;;;;;;;21.73;9.43;;;6.40;80.30;;;;;;2644067;30;20186;-80
2021/10/16 05:23:14;;;;;;;21.33;10.00;;;6.40;79.90;;;;;;2648332;38;20420;-80
2021/10/16 05:25:40;;;;;;;17.23;9.40;;;6.20;80.40;;;;;;2643047;38;20357;-80
2021/10/16 05:28:05;;;;;;;14.33;8.70;;;6.10;80.50;;;;;;2642554;30;20194;-81
2021/10/16 05:30:37;;;;;;;21.10;10.17;;;6.00;80.80;;;;;;2638463;38;20190;-80
2021/10/16 05:33:03;;;;;;;13.93;9.20;;;6.10;80.90;;;;;;2637066;38;20691;-80
2021/10/16 05:35:29;;;;;;;15.03;10.30;;;6.10;81.70;;;;;;2633953;38;20422;-79
2021/10/16 05:37:55;;;;;;;13.53;9.33;;;6.30;80.60;;;;;;2639761;30;20199;-80
2021/10/16 05:40:21;;;;;;;14.60;8.50;;;6.40;79.90;;;;;;2636380;30;20200;-80
2021/10/16 05:42:46;;;;;;;13.90;9.47;;;6.30;80.10;;;;;;2637933;30;20766;-79
2021/10/16 05:45:13;;;;;;;13.27;9.83;;;6.50;79.50;;;;;;2635009;30;20536;-81
2021/10/16 05:47:38;;;;;;;15.77;9.87;;;6.40;79.70;;;;;;2636195;30;20393;-80
2021/10/16 05:50:08;;;;;;;17.50;9.70;;;6.40;79.80;;;;;;2635682;38;20436;-79
2021/10/16 05:52:35;;;;;;;18.07;9.50;;;6.40;79.80;;;;;;2639723;30;20194;-81
2021/10/16 05:55:01;;;;;;;19.37;9.83;;;6.20;80.70;;;;;;2637461;30;21381;-81
2021/10/16 05:57:26;;;;;;;18.33;9.40;;;6.10;81.40;;;;;;2634993;38;20458;-81
2021/10/16 05:59:52;;;;;;;12.40;9.27;;;6.40;80.30;;;;;;2643268;30;20405;-80
2021/10/16 06:02:18;;;;;;;25.17;10.27;;;6.40;80.20;;;;;;2633463;30;20186;-80
2021/10/16 06:04:43;;;;;;;16.53;10.50;;;6.60;79.70;;;;;;2638385;30;20273;-81
2021/10/16 06:07:09;;;;;;;16.33;9.40;;;6.40;80.30;;;;;;2640283;30;20206;-80
2021/10/16 06:09:35;;;;;;;13.80;8.43;;;6.40;80.30;;;;;;2635740;38;20194;-80
2021/10/16 06:12:00;;;;;;;16.67;9.43;;;6.40;80.40;;;;;;2637661;30;20178;-80
2021/10/16 06:14:26;;;;;;;11.00;8.87;;;6.40;80.90;;;;;;2638163;38;20208;-81
2021/10/16 06:16:52;;;;;;;10.83;8.50;;;6.60;80.60;;;;;;2638548;30;20190;-80
2021/10/16 06:19:18;;;;;;;16.40;9.60;;;6.40;81.30;;;;;;2640878;30;20185;-81
2021/10/16 06:21:44;;;;;;;14.03;8.40;;;6.70;81.30;;;;;;2638574;30;21174;-80
2021/10/16 06:24:12;;;;;;;16.00;9.90;;;7.00;80.60;;;;;;2639395;30;21260;-79
2021/10/16 06:26:38;;;;;;;13.83;9.40;;;7.10;80.40;;;;;;2633969;38;20351;-79
2021/10/16 06:29:04;;;;;;;14.37;9.33;;;7.20;80.60;;;;;;2638218;30;20406;-81
2021/10/16 06:31:29;;;;;;;23.20;10.50;;;6.90;81.80;;;;;;2634798;30;20221;-81
2021/10/16 06:33:55;;;;;;;19.07;11.90;;;7.10;81.60;;;;;;2633375;38;20197;-80
2021/10/16 06:36:21;;;;;;;15.00;9.70;;;7.50;81.10;;;;;;2631907;30;20247;-78
2021/10/16 06:38:46;;;;;;;18.57;10.40;;;7.80;80.20;;;;;;2633926;30;20198;-80
2021/10/16 06:41:12;;;;;;;13.33;8.77;;;8.00;79.90;;;;;;2634037;30;20202;-80
2021/10/16 06:43:38;;;;;;;11.20;8.70;;;8.20;79.60;;;;;;2728315;35;20241;-79
2021/10/16 06:46:11;;;;;;;16.67;10.27;;;8.10;79.40;;;;;;2634880;30;20176;-82
2021/10/16 06:48:39;;;;;;;19.33;10.90;;;8.50;79.60;;;;;;2634558;38;20386;-80
2021/10/16 06:51:07;;;;;;;18.40;10.80;;;8.80;79.50;;;;;;2638127;30;21200;-79
2021/10/16 06:53:33;;;;;;;24.00;10.60;;;8.90;79.40;;;;;;2633358;30;20366;-79
2021/10/16 06:55:59;;;;;;;33.30;10.23;;;8.80;79.80;;;;;;2636899;30;20190;-82
2021/10/16 06:58:25;;;;;;;16.03;9.63;;;9.00;80.20;;;;;;2633395;38;20425;-79
2021/10/16 07:00:50;;;;;;;14.80;10.33;;;9.00;80.30;;;;;;2636979;38;20201;-80
2021/10/16 07:03:16;;;;;;;24.57;9.73;;;9.40;80.80;;;;;;2638901;30;20206;-80
2021/10/16 07:05:42;;;;;;;19.67;9.77;;;10.00;78.10;;;;;;2635715;30;20233;-82
2021/10/16 07:08:08;;;;;;;13.60;9.60;;;10.20;77.50;;;;;;2635320;30;20186;-81
2021/10/16 07:10:34;;;;;;;19.37;9.40;;;10.30;77.40;;;;;;2633259;30;21267;-81
2021/10/16 07:13:02;;;;;;;17.37;8.90;;;10.50;76.90;;;;;;2633501;30;20414;-79
2021/10/16 07:15:28;;;;;;;16.97;9.50;;;10.50;77.10;;;;;;2636425;38;20233;-81
2021/10/16 07:17:54;;;;;;;15.97;9.27;;;10.50;77.00;;;;;;2633120;30;20367;-80
2021/10/16 07:20:20;;;;;;;16.57;8.87;;;9.60;78.70;;;;;;2636247;30;20418;-78
2021/10/16 07:22:46;;;;;;;16.97;9.20;;;9.00;81.40;;;;;;2633776;30;20186;-79
2021/10/16 07:25:11;;;;;;;16.20;9.73;;;9.50;81.00;;;;;;2634286;30;20437;-80
2021/10/16 07:27:37;;;;;;;20.50;10.23;;;10.10;78.10;;;;;;2635972;38;20616;-81
2021/10/16 07:30:04;;;;;;;21.13;9.93;;;10.50;78.30;;;;;;2638375;38;20178;-80
2021/10/16 07:32:30;;;;;;;11.87;9.77;;;10.90;77.20;;;;;;2637605;30;20186;-79
2021/10/16 07:34:56;;;;;;;16.83;10.33;;;11.10;77.50;;;;;;2637038;30;20421;-80
2021/10/16 07:37:22;;;;;;;16.43;10.30;;;10.60;76.50;;;;;;2639324;30;20379;-80
2021/10/16 07:39:47;;;;;;;17.03;10.50;;;10.00;78.00;;;;;;2635260;30;20194;-82
2021/10/16 07:42:13;;;;;;;19.33;10.50;;;10.30;79.10;;;;;;2635479;38;20374;-80
2021/10/16 07:44:39;;;;;;;12.97;10.93;;;10.80;78.60;;;;;;2638758;30;20735;-81
2021/10/16 07:47:05;;;;;;;22.53;10.60;;;11.40;77.60;;;;;;2641818;38;20214;-80
2021/10/16 07:49:31;;;;;;;19.40;9.87;;;11.90;76.80;;;;;;2635030;38;20270;-80
2021/10/16 07:51:56;;;;;;;17.60;9.70;;;12.40;75.70;;;;;;2637232;30;20832;-80
2021/10/16 07:54:22;;;;;;;15.27;10.20;;;12.70;74.20;;;;;;2633084;30;20414;-79
2021/10/16 07:56:48;;;;;;;18.93;10.50;;;12.10;75.00;;;;;;2640379;30;21392;-80
2021/10/16 07:59:14;;;;;;;22.60;10.63;;;12.20;75.80;;;;;;2636596;30;20741;-80
2021/10/16 08:01:40;;;;;;;15.40;10.30;;;12.70;75.10;;;;;;2634109;38;20405;-80
2021/10/16 08:04:06;;;;;;;17.33;11.00;;;12.90;75.10;;;;;;2636417;30;20363;-79
2021/10/16 08:06:33;;;;;;;18.57;11.17;;;13.20;74.00;;;;;;2634949;38;22028;-81
2021/10/16 08:09:00;;;;;;;16.93;10.33;;;13.60;74.60;;;;;;2636307;30;20718;-80
2021/10/16 08:11:26;;;;;;;20.87;11.97;;;13.50;74.40;;;;;;2634802;38;20805;-80
2021/10/16 08:13:52;;;;;;;22.63;10.27;;;13.70;73.90;;;;;;2634195;30;20466;-81
2021/10/16 08:16:17;;;;;;;15.37;9.73;;;13.90;73.90;;;;;;2634560;38;20266;-81
2021/10/16 08:18:43;;;;;;;20.33;11.00;;;14.00;73.30;;;;;;2636235;30;20186;-81
2021/10/16 08:21:09;;;;;;;15.00;9.73;;;14.40;73.90;;;;;;2640462;30;20196;-80
2021/10/16 08:23:35;;;;;;;14.20;9.77;;;14.40;71.90;;;;;;2639566;30;20881;-81
2021/10/16 08:26:01;;;;;;;16.00;9.77;;;14.70;72.20;;;;;;2635923;38;20793;-82
2021/10/16 08:28:31;;;;;;;10.13;8.43;;;13.60;73.00;;;;;;2633841;30;20964;-80
2021/10/16 08:31:00;;;;;;;23.57;9.23;;;14.30;73.30;;;;;;2634446;30;20391;-81
2021/10/16 08:33:26;;;;;;;18.53;9.77;;;14.90;72.80;;;;;;2634892;30;20501;-82
2021/10/16 08:35:52;;;;;;;15.53;8.13;;;15.10;70.90;;;;;;2632918;30;20413;-79
2021/10/16 08:38:18;;;;;;;14.23;9.10;;;15.80;72.50;;;;;;2634609;30;20390;-81
2021/10/16 08:40:44;;;;;;;16.67;8.63;;;16.00;67.90;;;;;;2631600;38;20736;-81
2021/10/16 08:43:10;;;;;;;20.93;9.00;;;16.10;68.70;;;;;;2634197;30;21170;-80
2021/10/16 08:45:37;;;;;;;21.60;8.50;;;16.40;68.70;;;;;;2633593;38;20389;-82
2021/10/16 08:48:06;;;;;;;15.10;8.60;;;16.70;67.70;;;;;;2639631;38;20366;-80
2021/10/16 08:50:34;;;;;;;22.03;9.33;;;16.90;67.50;;;;;;2634747;30;20930;-80
2021/10/16 08:52:59;;;;;;;15.40;8.43;;;17.20;67.00;;;;;;2634284;30;20354;-82
2021/10/16 08:55:25;;;;;;;17.57;8.30;;;17.70;65.90;;;;;;2630444;30;20446;-82
2021/10/16 08:57:51;;;;;;;19.53;7.97;;;17.70;63.20;;;;;;2636563;30;20202;-80
2021/10/16 09:00:42;;;;;;;21.47;7.80;;;17.80;63.00;;;;;;2639398;30;20720;-81
2021/10/16 09:03:14;;;;;;;17.03;9.13;;;17.80;58.90;;;;;;2640754;30;20189;-82
2021/10/16 09:05:39;;;;;;;16.77;9.63;;;17.90;59.10;;;;;;2633836;38;20355;-81
2021/10/16 09:08:05;;;;;;;13.83;9.27;;;18.40;59.60;;;;;;2631229;38;20423;-79
2021/10/16 09:10:31;;;;;;;19.00;8.53;;;18.40;58.50;;;;;;2640148;30;20193;-79
2021/10/16 09:12:57;;;;;;;11.17;8.40;;;18.40;57.90;;;;;;2638626;30;20726;-79
2021/10/16 09:15:24;;;;;;;17.07;8.67;;;18.70;57.60;;;;;;2640854;30;20225;-80
2021/10/16 09:18:07;;;;;;;16.23;8.57;;;18.60;56.40;;;;;;2645348;30;20902;-81
2021/10/16 09:20:37;;;;;;;10.67;7.60;;;18.70;56.60;;;;;;2647260;30;20562;-80
2021/10/16 09:23:05;;;;;;;16.70;8.57;;;18.70;54.80;;;;;;2639319;38;20382;-81
2021/10/16 09:25:30;;;;;;;16.50;7.83;;;18.50;56.20;;;;;;2636319;30;20391;-81
2021/10/16 09:28:16;;;;;;;15.60;7.17;;;18.10;56.00;;;;;;2639883;30;20406;-81
2021/10/16 09:30:46;;;;;;;23.27;7.63;;;17.60;55.00;;;;;;2640015;38;20201;-82
2021/10/16 09:33:13;;;;;;;11.67;6.40;;;18.10;56.60;;;;;;2640412;38;21300;-81
2021/10/16 09:35:38;;;;;;;18.90;5.80;;;17.30;57.40;;;;;;2637428;30;20969;-80
2021/10/16 09:38:05;;;;;;;14.37;6.10;;;17.40;57.40;;;;;;2639314;38;20861;-80
2021/10/16 09:40:38;;;;;;;12.80;5.13;;;18.00;55.90;;;;;;2633595;38;20193;-80
2021/10/16 09:43:22;;;;;;;10.70;5.13;;;18.90;53.80;;;;;;2633190;38;20375;-83
2021/10/16 09:46:08;;;;;;;17.13;5.60;;;19.60;53.60;;;;;;2635439;30;20359;-80
2021/10/16 09:48:36;;;;;;;13.60;5.43;;;20.20;52.90;;;;;;2634620;30;20379;-81
2021/10/16 09:51:02;;;;;;;12.30;4.87;;;20.70;51.90;;;;;;2633305;30;20383;-80
2021/10/16 09:53:28;;;;;;;11.27;6.40;;;21.80;50.40;;;;;;2633895;30;20431;-81
2021/10/16 09:55:54;;;;;;;11.63;6.27;;;22.30;48.70;;;;;;2640356;30;20439;-81
2021/10/16 09:58:22;;;;;;;13.10;7.20;;;22.80;48.30;;;;;;2638190;30;20285;-81
2021/10/16 10:00:50;;;;;;;9.50;6.17;;;22.80;48.20;;;;;;2635430;38;20442;-80
2021/10/16 10:03:19;;;;;;;18.07;7.30;;;22.60;48.30;;;;;;2639527;38;20434;-81
2021/10/16 10:05:45;;;;;;;15.70;6.10;;;21.90;48.50;;;;;;2634351;30;20409;-81
2021/10/16 10:08:12;;;;;;;14.63;5.70;;;22.50;47.40;;;;;;2638780;30;20490;-81
2021/10/16 10:10:38;;;;;;;6.27;3.70;;;22.70;47.70;;;;;;2640139;30;20380;-79
2021/10/16 10:13:04;;;;;;;9.77;4.03;;;21.80;48.10;;;;;;2638870;30;20963;-80
2021/10/16 10:15:32;;;;;;;7.50;3.30;;;21.10;50.00;;;;;;2638235;30;20348;-80
2021/10/16 10:17:59;;;;;;;21.83;4.80;;;20.80;50.30;;;;;;2636381;30;20384;-80
2021/10/16 10:20:26;;;;;;;13.93;4.20;;;20.40;50.60;;;;;;2638172;30;20394;-81
2021/10/16 10:22:52;;;;;;;12.50;3.97;;;20.30;51.10;;;;;;2635135;30;21730;-81
2021/10/16 10:25:24;;;;;;;11.00;4.30;;;22.00;47.50;;;;;;2639086;30;20434;-81
2021/10/16 10:27:51;;;;;;;6.17;3.27;;;23.80;44.30;;;;;;2637064;30;20416;-83
2021/10/16 10:30:38;;;;;;;16.13;6.07;;;25.40;41.00;;;;;;2634734;30;21117;-81
2021/10/16 10:33:16;;;;;;;12.23;5.80;;;27.20;37.70;;;;;;2634633;30;20350;-81
2021/10/16 10:36:00;;;;;;;11.80;6.10;;;29.50;33.20;;;;;;2633244;38;20497;-79
2021/10/16 10:38:30;;;;;;;9.30;3.80;;;29.40;33.10;;;;;;2631817;30;20355;-80
2021/10/16 10:40:56;;;;;;;15.53;5.20;;;29.00;32.10;;;;;;2636745;30;20367;-79
2021/10/16 10:43:39;;;;;;;9.07;3.33;;;30.30;32.20;;;;;;2629353;30;20367;-80
2021/10/16 10:46:14;;;;;;;11.90;3.80;;;30.30;31.00;;;;;;2632791;30;20193;-81
2021/10/16 10:48:45;;;;;;;9.80;4.10;;;28.00;33.70;;;;;;2632234;30;20379;-81
2021/10/16 10:51:25;;;;;;;12.60;4.17;;;25.20;38.40;;;;;;2631671;30;20404;-79
2021/10/16 10:54:08;;;;;;;17.27;6.67;;;23.30;41.00;;;;;;2630336;38;20384;-80
2021/10/16 10:56:38;;;;;;;13.63;7.40;;;21.40;44.60;;;;;;2632342;30;20403;-79
2021/10/16 10:59:08;;;;;;;13.10;7.00;;;20.30;46.90;;;;;;2632916;38;20400;-80
2021/10/16 11:01:55;;;;;;;20.20;7.33;;;19.30;49.30;;;;;;2633177;30;20379;-80
2021/10/16 11:04:37;;;;;;;19.23;8.63;;;18.50;51.10;;;;;;2633573;38;20344;-80
2021/10/16 11:07:05;;;;;;;29.27;10.43;;;17.60;52.00;;;;;;2637796;38;20362;-81
2021/10/16 11:09:32;;;;;;;17.83;8.57;;;17.20;52.70;;;;;;2637172;30;20410;-79
2021/10/16 11:12:00;;;;;;;16.70;6.23;;;17.10;53.30;;;;;;2637374;30;20786;-81
2021/10/16 11:14:33;;;;;;;19.83;7.40;;;17.10;53.60;;;;;;2638689;30;20397;-79
2021/10/16 11:17:02;;;;;;;14.10;7.17;;;15.90;56.00;;;;;;2637518;30;20456;-78
2021/10/16 11:19:30;;;;;;;16.37;8.13;;;15.40;57.10;;;;;;2637363;38;20359;-79
2021/10/16 11:21:59;;;;;;;17.90;7.07;;;14.80;59.60;;;;;;2630993;38;20402;-80
2021/10/16 11:24:28;;;;;;;15.10;7.40;;;14.90;59.80;;;;;;2636286;38;20507;-80
2021/10/16 11:26:57;;;;;;;33.10;8.90;;;15.50;57.90;;;;;;2636352;30;20383;-79
2021/10/16 11:29:30;;;;;;;17.30;8.60;;;15.90;57.40;;;;;;2635196;38;20977;-79
2021/10/16 11:32:20;;;;;;;17.90;10.33;;;16.30;57.20;;;;;;2630778;31;20510;-79
2021/10/16 11:35:05;;;;;;;19.23;7.47;;;16.00;58.30;;;;;;2634988;30;20367;-80
2021/10/16 11:37:35;;;;;;;15.83;5.87;;;15.80;55.80;;;;;;2639577;30;20434;-80
2021/10/16 11:40:03;;;;;;;15.83;5.47;;;16.30;54.30;;;;;;2636499;30;20386;-79
2021/10/16 11:42:36;;;;;;;7.70;4.17;;;16.10;53.90;;;;;;2636213;30;20367;-80
2021/10/16 11:45:07;;;;;;;13.63;4.50;;;15.60;54.50;;;;;;2631635;38;20367;-79
2021/10/16 11:47:33;;;;;;;12.47;6.43;;;16.50;52.80;;;;;;2633878;30;20375;-81
2021/10/16 11:50:10;;;;;;;10.57;3.60;;;16.80;53.40;;;;;;2634614;30;20363;-80
2021/10/16 11:52:36;;;;;;;7.10;3.97;;;16.90;49.80;;;;;;2633690;30;20606;-78
2021/10/16 11:55:31;;;;;;;8.57;3.73;;;17.20;47.60;;;;;;2630912;30;20413;-80
2021/10/16 11:58:13;;;;;;;7.00;3.30;;;17.40;46.80;;;;;;2633495;30;20393;-80
2021/10/16 12:00:42;;;;;;;5.13;3.00;;;17.00;46.70;;;;;;2633391;30;20379;-81
2021/10/16 12:03:14;;;;;;;7.40;4.27;;;17.00;44.50;;;;;;2630759;38;20386;-80
2021/10/16 12:05:55;;;;;;;6.67;4.00;;;17.10;46.30;;;;;;2634884;30;20367;-79
2021/10/16 12:08:28;;;;;;;13.87;4.03;;;16.50;49.30;;;;;;2634191;38;20483;-78
2021/10/16 12:11:01;;;;;;;12.97;4.20;;;16.70;48.80;;;;;;2637474;30;20872;-81
2021/10/16 12:13:27;;;;;;;12.07;3.67;;;16.60;47.20;;;;;;2636278;30;21042;-79
2021/10/16 12:15:53;;;;;;;6.53;4.23;;;16.50;48.00;;;;;;2633618;30;21021;-80
2021/10/16 12:18:29;;;;;;;13.10;6.17;;;16.50;49.30;;;;;;2635320;30;20204;-79
2021/10/16 12:20:57;;;;;;;12.30;5.40;;;16.40;49.30;;;;;;2631301;38;20189;-79
2021/10/16 12:23:48;;;;;;;9.83;4.40;;;16.50;49.40;;;;;;2636328;38;20454;-80
2021/10/16 12:26:25;;;;;;;8.10;4.33;;;16.00;48.80;;;;;;2635810;38;20417;-80
2021/10/16 12:28:52;;;;;;;12.00;4.70;;;16.20;46.00;;;;;;2634129;30;20430;-80
2021/10/16 12:31:20;;;;;;;11.07;4.10;;;19.50;41.70;;;;;;2631087;30;20515;-81
2021/10/16 12:34:14;;;;;;;20.57;5.67;;;22.30;38.10;;;;;;2630009;30;20910;-80
2021/10/16 12:36:48;;;;;;;23.97;7.73;;;22.40;38.50;;;;;;2632420;30;20351;-79
2021/10/16 12:39:22;;;;;;;16.73;5.40;;;21.40;40.30;;;;;;2629616;38;20399;-80
2021/10/16 12:41:47;;;;;;;12.60;6.30;;;21.00;41.30;;;;;;2633960;38;20339;-80
2021/10/16 12:44:24;;;;;;;11.20;5.20;;;20.60;42.50;;;;;;2634059;38;20387;-78